Hlavní strana
METAR-TAF:

METAR-TAF

Letiště :

Parsons, Tennessee, Spojené státy americké

zeměpisná šířka: 35-39-23N, zeměpisná délka: 088-11-43W, výška: 149 m

Aktuální stav počasí

Zpráva byla vytvořena před 24 minutami, v 01:15 UTC
Severozápadní vítr 8 kt s nárazy do 19 kt
Teplota 10°C
Vlhkost vzduchu 66%
Tlak 1022 hPa
Viditelnost: 16.1 km
Skoro jasno ve výšce 2900 ft
Polojasno ve výšce 3400 ft

METAR: KPVE 190115Z AUTO 31008G19KT 10SM FEW029 SCT034 10/04 A3017 RMK A01

Čas: 19:39 (01:39 UTC)


TAF: chybějící

Stav a předpovědi počasí z více než 4 000 letišť (zprávy METAR a TAF).

Červené a žluté tečky na mapě představují dostupné meteorologické stanice.

Když kurzor umístíte na tečku, zobrazí se název stanice.

Pak kliknutím zobrazíte stav a předpověď počasí.

Chcete-li změnit mapu, kliknutím na zelené tlačítko se znaménkem +mapu přiblížíte, kliknutím na zelené tlačítko se znaménkem – mapu oddálíte a kliknutím na zelené šipky přejdete na sousední mapy.


METAR-TAF: